createdAt,value
2019-05-09T00:01:55.269Z,95850.47
2019-05-09T00:04:28.073Z,95850.76
2019-05-09T00:06:58.717Z,95856.89
2019-05-09T00:09:30.654Z,95850.01
2019-05-09T00:12:03.550Z,95855.37
2019-05-09T00:14:38.311Z,95853.52
2019-05-09T00:17:10.112Z,95851.88
2019-05-09T00:19:41.057Z,95846.35
2019-05-09T00:22:13.740Z,95846.49
2019-05-09T00:24:44.908Z,95842.23
2019-05-09T00:27:16.228Z,95840.27
2019-05-09T00:29:49.203Z,95832.77
2019-05-09T00:32:33.891Z,95837.23
2019-05-09T00:35:29.405Z,95839.42
2019-05-09T01:03:04.300Z,95800.86
2019-05-09T01:05:35.986Z,95794.63
2019-05-09T01:08:07.301Z,95793.83
2019-05-09T01:10:38.455Z,95785.77
2019-05-09T01:13:09.711Z,95789.20
2019-05-09T01:15:40.814Z,95787.20
2019-05-09T01:18:14.311Z,95791.77
2019-05-09T01:20:46.107Z,95790.30
2019-05-09T01:23:17.124Z,95787.58
2019-05-09T01:25:48.740Z,95792.56
2019-05-09T01:28:19.708Z,95789.52
2019-05-09T01:30:53.085Z,95785.53
2019-05-09T01:33:53.409Z,95787.77
2019-05-09T01:36:48.215Z,95786.86
2019-05-09T01:39:19.603Z,95785.55
2019-05-09T01:41:53.164Z,95785.60
2019-05-09T01:44:24.630Z,95782.74
2019-05-09T01:46:55.782Z,95787.79
2019-05-09T01:49:27.469Z,95778.13
2019-05-09T01:52:13.781Z,95779.30
2019-05-09T01:54:47.108Z,95786.32
2019-05-09T01:57:18.800Z,95777.65
2019-05-09T01:59:50.080Z,95773.44
2019-05-09T02:02:23.411Z,95772.82
2019-05-09T02:04:54.377Z,95774.31
2019-05-09T02:07:25.380Z,95765.11
2019-05-09T02:09:56.748Z,95764.28
2019-05-09T02:12:28.093Z,95767.33
2019-05-09T02:15:08.799Z,95767.73
2019-05-09T02:18:05.121Z,95773.80
2019-05-09T02:20:35.826Z,95772.41
2019-05-09T02:23:07.592Z,95768.78
2019-05-09T02:25:38.534Z,95767.84
2019-05-09T02:28:09.616Z,95771.50
2019-05-09T02:30:40.590Z,95774.23
2019-05-09T02:33:14.376Z,95772.45
2019-05-09T02:35:55.758Z,95773.67
2019-05-09T02:38:19.723Z,95769.47
2019-05-09T02:40:49.411Z,95772.94
2019-05-09T02:43:22.496Z,95773.09
2019-05-09T02:45:59.936Z,95768.86
2019-05-09T02:48:30.880Z,95774.03
2019-05-09T02:51:02.788Z,95767.20
2019-05-09T02:53:34.686Z,95778.73
2019-05-09T02:56:13.466Z,95777.37
2019-05-09T02:58:52.055Z,95777.22
2019-05-09T03:01:39.170Z,95775.77
2019-05-09T03:04:11.038Z,95777.53
2019-05-09T03:06:42.346Z,95772.97
2019-05-09T03:09:14.797Z,95770.97
2019-05-09T03:11:48.496Z,95776.84
2019-05-09T03:14:19.590Z,95773.82
2019-05-09T03:16:51.326Z,95776.13
2019-05-09T03:19:22.728Z,95775.08
2019-05-09T03:21:58.684Z,95773.21
2019-05-09T03:24:30.946Z,95768.81
2019-05-09T03:27:08.551Z,95761.27
2019-05-09T03:29:48.839Z,95755.86
2019-05-09T03:32:19.738Z,95752.70
2019-05-09T03:34:51.802Z,95740.45
2019-05-09T03:37:23.294Z,95744.27
2019-05-09T03:39:54.461Z,95737.64
2019-05-09T03:42:38.084Z,95729.53
2019-05-09T03:44:59.422Z,95728.41
2019-05-09T03:47:47.845Z,95739.32
2019-05-09T03:50:18.952Z,95737.75
2019-05-09T03:52:50.503Z,95733.25
2019-05-09T03:55:31.276Z,95725.81
2019-05-09T03:58:11.914Z,95723.25
2019-05-09T04:00:43.259Z,95724.02
2019-05-09T04:03:14.944Z,95717.17
2019-05-09T04:05:56.633Z,95714.73
2019-05-09T04:08:20.080Z,95710.80
2019-05-09T04:10:52.842Z,95713.02
2019-05-09T04:13:28.449Z,95719.14
2019-05-09T04:16:00.971Z,95716.15
2019-05-09T04:18:32.017Z,95712.80
2019-05-09T04:21:12.987Z,95715.09
2019-05-09T04:23:44.336Z,95707.03
2019-05-09T04:26:22.936Z,95703.41
2019-05-09T04:28:54.309Z,95697.42
2019-05-09T04:31:25.370Z,95697.72
2019-05-09T04:33:57.436Z,95700.40
2019-05-09T04:36:41.045Z,95700.16
2019-05-09T04:39:17.342Z,95705.56
2019-05-09T04:41:48.757Z,95710.37
2019-05-09T04:44:57.574Z,95705.60
2019-05-09T04:47:27.820Z,95701.63
2019-05-09T04:49:59.827Z,95706.23
2019-05-09T04:52:31.114Z,95712.17
2019-05-09T04:55:18.358Z,95708.89
2019-05-09T04:57:50.507Z,95706.98
2019-05-09T05:00:27.606Z,95717.39
2019-05-09T05:02:59.308Z,95726.58
2019-05-09T05:05:30.393Z,95729.76
2019-05-09T05:08:02.147Z,95728.52
2019-05-09T05:10:33.198Z,95730.72
2019-05-09T05:13:03.958Z,95719.24
2019-05-09T05:15:37.685Z,95724.38
2019-05-09T05:18:08.850Z,95726.98
2019-05-09T05:20:40.141Z,95714.75
2019-05-09T05:23:18.252Z,95715.39
2019-05-09T05:25:49.949Z,95713.27
2019-05-09T05:28:21.928Z,95702.80
2019-05-09T05:30:53.398Z,95706.12
2019-05-09T05:33:38.221Z,95697.50
2019-05-09T05:36:10.472Z,95688.08
2019-05-09T05:38:42.240Z,95689.83
2019-05-09T05:41:13.831Z,95689.50
2019-05-09T05:43:45.068Z,95684.41
2019-05-09T05:46:37.903Z,95683.25
2019-05-09T05:49:08.957Z,95680.97
2019-05-09T05:51:49.567Z,95682.66
2019-05-09T05:54:24.547Z,95679.86
2019-05-09T05:56:57.805Z,95673.19
2019-05-09T05:59:30.054Z,95674.89
2019-05-09T06:02:01.202Z,95674.50
2019-05-09T06:04:32.569Z,95676.08
2019-05-09T06:07:03.908Z,95671.17
2019-05-09T06:09:35.040Z,95680.84
2019-05-09T06:12:08.262Z,95681.76
2019-05-09T06:14:39.875Z,95678.77
2019-05-09T06:17:11.535Z,95679.40
2019-05-09T06:19:43.056Z,95666.78
2019-05-09T06:22:13.805Z,95668.88
2019-05-09T06:24:47.862Z,95666.73
2019-05-09T06:27:23.738Z,95663.97
2019-05-09T06:30:03.209Z,95664.86
2019-05-09T06:32:35.023Z,95659.38
2019-05-09T06:35:08.167Z,95666.11
2019-05-09T06:37:47.718Z,95661.34
2019-05-09T06:40:22.318Z,95669.81
2019-05-09T06:42:53.859Z,95666.63
2019-05-09T06:45:43.072Z,95662.34
2019-05-09T06:48:14.695Z,95672.14
2019-05-09T06:50:48.343Z,95681.27
2019-05-09T06:53:19.420Z,95683.62
2019-05-09T06:55:50.618Z,95681.49
2019-05-09T06:58:31.762Z,95681.23
2019-05-09T07:03:54.015Z,95667.44
2019-05-09T07:06:41.563Z,95666.77
2019-05-09T07:09:38.932Z,95650.06
2019-05-09T07:12:10.073Z,95660.66
2019-05-09T07:14:42.043Z,95663.89
2019-05-09T07:17:14.413Z,95653.03
2019-05-09T07:19:45.188Z,95659.94
2019-05-09T07:22:30.508Z,95661.84
2019-05-09T07:25:15.029Z,95679.15
2019-05-09T07:27:48.280Z,95684.84
2019-05-09T07:30:30.163Z,95672.03
2019-05-09T07:33:14.390Z,95686.68
2019-05-09T07:35:47.581Z,95688.58
2019-05-09T07:38:28.592Z,95696.30
2019-05-09T07:41:00.402Z,95685.93
2019-05-09T07:43:33.426Z,95683.25
2019-05-09T07:46:33.083Z,95684.23
2019-05-09T07:49:08.559Z,95683.33
2019-05-09T07:51:40.437Z,95686.70
2019-05-09T07:54:21.958Z,95696.28
2019-05-09T07:56:45.580Z,95695.32
2019-05-09T07:59:18.088Z,95704.80
2019-05-09T08:01:50.132Z,95696.92
2019-05-09T08:04:21.779Z,95702.30
2019-05-09T08:06:53.169Z,95701.28
2019-05-09T08:09:27.927Z,95702.39
2019-05-09T08:11:58.972Z,95706.03
2019-05-09T08:14:30.319Z,95723.33
2019-05-09T08:17:02.256Z,95723.76
2019-05-09T08:19:33.982Z,95728.09
2019-05-09T08:22:07.758Z,95719.88
2019-05-09T08:24:38.412Z,95726.52
2019-05-09T08:27:09.136Z,95734.00
2019-05-09T08:29:40.501Z,95735.02
2019-05-09T08:32:11.558Z,95731.34
2019-05-09T08:34:42.887Z,95738.66
2019-05-09T08:37:14.306Z,95736.84
2019-05-09T08:39:48.234Z,95736.98
2019-05-09T08:42:20.140Z,95720.78
2019-05-09T08:44:58.671Z,95701.00
2019-05-09T08:47:30.496Z,95706.23
2019-05-09T08:50:28.111Z,95716.79
2019-05-09T08:52:58.871Z,95709.16
2019-05-09T08:55:29.637Z,95709.45
2019-05-09T08:58:01.668Z,95711.55
2019-05-09T09:00:33.180Z,95717.95
2019-05-09T09:03:04.930Z,95718.91
2019-05-09T09:05:43.164Z,95711.58
2019-05-09T09:08:13.099Z,95705.03
2019-05-09T09:10:44.545Z,95714.08
2019-05-09T09:13:17.539Z,95716.39
2019-05-09T09:16:10.532Z,95726.20
2019-05-09T09:18:22.193Z,95717.25
2019-05-09T09:20:53.451Z,95704.96
2019-05-09T09:23:42.343Z,95712.80
2019-05-09T09:25:58.452Z,95712.12
2019-05-09T09:28:29.822Z,95718.55
2019-05-09T09:31:01.138Z,95721.85
2019-05-09T09:33:32.230Z,95720.20
2019-05-09T09:36:03.229Z,95711.03
2019-05-09T09:38:34.718Z,95706.19
2019-05-09T09:41:07.602Z,95703.30
2019-05-09T09:43:38.499Z,95700.56
2019-05-09T09:46:14.397Z,95697.77
2019-05-09T09:48:42.459Z,95692.24
2019-05-09T09:51:13.702Z,95703.94
2019-05-09T09:53:45.082Z,95703.11
2019-05-09T09:56:17.830Z,95709.87
2019-05-09T09:58:57.564Z,95706.80
2019-05-09T10:01:30.039Z,95705.22
2019-05-09T10:04:28.216Z,95703.33
2019-05-09T10:06:59.806Z,95697.91
2019-05-09T10:09:33.260Z,95688.16
2019-05-09T10:12:04.205Z,95686.35
2019-05-09T10:14:39.771Z,95688.10
2019-05-09T10:17:28.415Z,95683.34
2019-05-09T10:20:04.749Z,95682.61
2019-05-09T10:22:44.742Z,95679.19
2019-05-09T10:25:08.315Z,95688.49
2019-05-09T10:27:39.751Z,95691.23
2019-05-09T10:30:10.903Z,95683.96
2019-05-09T10:32:47.652Z,95684.33
2019-05-09T10:35:24.466Z,95678.95
2019-05-09T10:37:58.658Z,95677.29
2019-05-09T10:40:28.305Z,95676.03
2019-05-09T10:43:30.696Z,95657.05
2019-05-09T10:46:19.309Z,95669.44
2019-05-09T10:49:03.277Z,95674.55
2019-05-09T10:51:34.868Z,95656.96
2019-05-09T10:54:07.893Z,95660.28
2019-05-09T10:56:38.799Z,95648.27
2019-05-09T10:59:09.769Z,95658.36
2019-05-09T11:01:41.523Z,95661.01
2019-05-09T11:04:13.334Z,95647.94
2019-05-09T11:06:44.383Z,95656.41
2019-05-09T11:09:18.015Z,95649.85
2019-05-09T11:11:48.961Z,95633.30
2019-05-09T11:14:32.532Z,95644.83
2019-05-09T11:17:06.700Z,95620.36
2019-05-09T11:19:28.776Z,95633.84
2019-05-09T11:22:08.109Z,95616.45
2019-05-09T11:24:46.169Z,95639.94
2019-05-09T11:27:12.298Z,95621.03
2019-05-09T11:29:47.497Z,95617.15
2019-05-09T11:32:18.458Z,95616.20
2019-05-09T11:34:49.709Z,95616.77
2019-05-09T11:37:22.199Z,95618.95
2019-05-09T11:39:53.447Z,95616.36
2019-05-09T11:42:25.467Z,95626.60
2019-05-09T11:44:57.999Z,95615.89
2019-05-09T11:47:38.257Z,95628.84
2019-05-09T11:50:01.914Z,95617.39
2019-05-09T11:52:33.270Z,95619.29
2019-05-09T11:55:07.701Z,95621.88
2019-05-09T11:57:38.710Z,95617.31
2019-05-09T12:00:10.771Z,95625.16
2019-05-09T12:02:42.136Z,95641.02
2019-05-09T12:05:13.103Z,95649.32
2019-05-09T12:07:44.120Z,95659.25
2019-05-09T12:10:15.284Z,95650.22
2019-05-09T12:12:47.793Z,95639.69
2019-05-09T12:15:18.763Z,95647.75
2019-05-09T12:17:57.861Z,95644.42
2019-05-09T12:20:22.886Z,95629.25
2019-05-09T12:22:54.526Z,95637.86
2019-05-09T12:25:28.368Z,95632.01
2019-05-09T12:27:58.782Z,95627.11
2019-05-09T12:30:29.870Z,95623.98
2019-05-09T12:33:05.130Z,95642.80
2019-05-09T12:35:38.566Z,95642.45
2019-05-09T12:38:09.205Z,95628.64
2019-05-09T12:40:40.238Z,95623.90
2019-05-09T12:43:11.183Z,95608.84
2019-05-09T12:45:42.931Z,95627.57
2019-05-09T12:48:15.802Z,95636.18
2019-05-09T12:50:48.879Z,95630.12
2019-05-09T12:53:22.465Z,95629.39
2019-05-09T12:56:00.363Z,95647.30
2019-05-09T12:58:31.543Z,95667.52
2019-05-09T13:01:02.140Z,95652.14
2019-05-09T13:03:33.725Z,95684.86
2019-05-09T13:06:04.817Z,95676.84
2019-05-09T13:08:35.806Z,95673.97
2019-05-09T13:11:08.027Z,95642.30
2019-05-09T13:13:41.307Z,95662.34
2019-05-09T13:16:50.797Z,95664.63
2019-05-09T13:19:19.117Z,95658.92
2019-05-09T13:21:50.455Z,95653.01
2019-05-09T13:24:22.338Z,95668.73
2019-05-09T13:26:53.829Z,95671.63
2019-05-09T13:29:25.494Z,95625.75
2019-05-09T13:31:57.753Z,95682.61
2019-05-09T13:34:29.558Z,95677.06
2019-05-09T13:37:01.032Z,95692.48
2019-05-09T13:39:32.581Z,95667.12
2019-05-09T13:42:03.409Z,95702.61
2019-05-09T13:44:34.530Z,95670.65
2019-05-09T13:47:06.126Z,95692.70
2019-05-09T13:49:39.637Z,95694.98
2019-05-09T13:52:10.436Z,95674.84
2019-05-09T13:54:41.785Z,95692.63
2019-05-09T13:57:15.579Z,95669.98
2019-05-09T13:59:48.567Z,95679.75
2019-05-09T14:02:19.835Z,95676.16
2019-05-09T14:04:50.477Z,95705.61
2019-05-09T14:07:21.912Z,95681.19
2019-05-09T14:09:53.191Z,95694.55
2019-05-09T14:12:38.175Z,95687.27
2019-05-09T14:15:08.712Z,95687.80
2019-05-09T14:17:49.270Z,95698.91
2019-05-09T14:20:12.463Z,95700.94
2019-05-09T14:22:43.904Z,95694.14
2019-05-09T14:25:15.511Z,95692.86
2019-05-09T14:27:49.722Z,95682.62
2019-05-09T14:30:20.080Z,95703.86
2019-05-09T14:32:51.257Z,95721.75
2019-05-09T14:35:22.372Z,95721.84
2019-05-09T14:37:54.039Z,95716.05
2019-05-09T14:40:24.704Z,95717.33
2019-05-09T14:42:57.782Z,95726.80
2019-05-09T14:45:28.500Z,95722.05
2019-05-09T14:48:03.634Z,95720.62
2019-05-09T14:50:41.270Z,95741.83
2019-05-09T14:53:15.084Z,95764.30
2019-05-09T14:55:50.063Z,95760.86
2019-05-09T14:58:24.815Z,95777.63
2019-05-09T15:01:00.562Z,95769.58
2019-05-09T15:03:29.527Z,95811.15
2019-05-09T15:06:00.581Z,95813.95
2019-05-09T15:08:31.712Z,95851.36
2019-05-09T15:11:03.278Z,95834.25
2019-05-09T15:13:53.568Z,95820.68
2019-05-09T15:16:24.207Z,95822.04
2019-05-09T15:18:54.850Z,95829.52
2019-05-09T15:21:25.971Z,95817.63
2019-05-09T15:24:05.094Z,95823.13
2019-05-09T15:26:41.262Z,95841.65
2019-05-09T15:29:23.162Z,95820.23
2019-05-09T15:31:55.363Z,95823.69
2019-05-09T15:34:28.529Z,95821.63
2019-05-09T15:37:03.455Z,95828.36
2019-05-09T15:39:38.310Z,95821.52
2019-05-09T15:42:14.200Z,95817.60
2019-05-09T15:44:54.045Z,95796.31
2019-05-09T15:47:39.262Z,95835.39
2019-05-09T15:50:23.613Z,95832.20
2019-05-09T15:53:03.380Z,95836.66
2019-05-09T15:55:34.725Z,95842.94
2019-05-09T15:58:06.578Z,95859.41
2019-05-09T16:00:38.607Z,95853.83
2019-05-09T16:03:10.275Z,95856.43
2019-05-09T16:05:41.836Z,95844.30
2019-05-09T16:08:13.814Z,95856.75
2019-05-09T16:10:45.374Z,95844.58
2019-05-09T16:13:17.700Z,95855.40
2019-05-09T16:15:49.873Z,95872.22
2019-05-09T16:18:21.402Z,95872.73
2019-05-09T16:20:53.320Z,95858.19
2019-05-09T16:23:24.675Z,95866.09
2019-05-09T16:25:58.375Z,95859.92
2019-05-09T16:28:28.277Z,95859.09
2019-05-09T16:30:59.565Z,95865.94
2019-05-09T16:33:31.618Z,95871.22
2019-05-09T16:36:02.719Z,95866.88
2019-05-09T16:38:43.047Z,95867.47
2019-05-09T16:41:07.717Z,95872.56
2019-05-09T16:43:39.358Z,95875.42
2019-05-09T16:46:10.363Z,95874.47
2019-05-09T16:48:42.014Z,95876.48
2019-05-09T16:51:13.947Z,95876.66
2019-05-09T16:53:49.514Z,95877.88
2019-05-09T16:56:18.294Z,95880.22
2019-05-09T16:58:48.980Z,95885.37
2019-05-09T17:01:19.954Z,95890.28
2019-05-09T17:03:51.023Z,95900.22
2019-05-09T17:06:21.653Z,95898.00
2019-05-09T17:08:52.431Z,95894.44
2019-05-09T17:11:24.115Z,95909.91
2019-05-09T17:13:55.388Z,95915.30
2019-05-09T17:16:28.455Z,95918.16
2019-05-09T17:18:59.637Z,95910.37
2019-05-09T17:21:43.676Z,95936.29
2019-05-09T17:24:17.506Z,95951.46
2019-05-09T17:26:49.136Z,95968.53
2019-05-09T17:29:20.387Z,95973.03
2019-05-09T17:31:52.221Z,95981.61
2019-05-09T17:34:23.503Z,95982.84
2019-05-09T17:36:54.935Z,95989.77
2019-05-09T17:39:27.794Z,95995.10
2019-05-09T17:41:59.271Z,95989.12
2019-05-09T17:44:30.940Z,95994.39
2019-05-09T17:47:02.602Z,96005.13
2019-05-09T17:49:34.641Z,96012.13
2019-05-09T17:52:07.553Z,96017.61
2019-05-09T17:54:39.144Z,96015.48
2019-05-09T17:57:11.024Z,96024.49
2019-05-09T17:59:42.002Z,96033.13
2019-05-09T18:02:13.563Z,96032.75
2019-05-09T18:04:47.763Z,96024.45
2019-05-09T18:07:21.053Z,96034.90
2019-05-09T18:09:52.100Z,96036.16
2019-05-09T18:12:27.759Z,96033.23
2019-05-09T18:14:59.995Z,96027.77
2019-05-09T18:17:31.866Z,96036.20
2019-05-09T18:20:04.993Z,96032.81
2019-05-09T18:22:36.560Z,96039.05
2019-05-09T18:25:11.304Z,96041.23
2019-05-09T18:27:50.538Z,96046.45
2019-05-09T18:30:24.803Z,96053.75
2019-05-09T18:33:07.588Z,96060.23
2019-05-09T18:35:40.876Z,96063.95
2019-05-09T18:38:24.274Z,96078.44
2019-05-09T18:40:59.160Z,96083.36
2019-05-09T18:43:32.409Z,96090.19
2019-05-09T18:46:05.125Z,96107.46
2019-05-09T18:48:40.790Z,96109.27
2019-05-09T18:51:13.483Z,96109.84
2019-05-09T18:53:53.200Z,96112.36
2019-05-09T18:56:30.088Z,96111.41
2019-05-09T18:59:08.957Z,96113.22
2019-05-09T19:01:45.149Z,96117.81
2019-05-09T19:04:17.556Z,96123.82
2019-05-09T19:06:56.390Z,96120.74
2019-05-09T19:09:37.954Z,96118.60
2019-05-09T19:12:16.678Z,96122.62
2019-05-09T19:14:49.337Z,96127.60
2019-05-09T19:17:38.618Z,96126.25
2019-05-09T19:20:20.405Z,96141.44
2019-05-09T19:22:52.005Z,96142.51
2019-05-09T19:25:23.518Z,96139.25
2019-05-09T19:27:58.579Z,96138.91
2019-05-09T19:30:34.653Z,96150.48
2019-05-09T19:33:27.695Z,96157.32
2019-05-09T19:36:03.193Z,96161.97
2019-05-09T19:38:40.615Z,96166.83
2019-05-09T19:41:15.407Z,96171.97
2019-05-09T19:43:46.886Z,96175.98
2019-05-09T19:46:18.749Z,96171.45
2019-05-09T19:48:49.669Z,96167.20
2019-05-09T19:51:21.953Z,96173.91
2019-05-09T19:53:53.408Z,96175.34
2019-05-09T19:56:26.864Z,96174.78
2019-05-09T19:58:57.368Z,96177.72
2019-05-09T20:01:28.551Z,96176.29
2019-05-09T20:04:07.992Z,96177.19
2019-05-09T20:06:38.682Z,96175.59
2019-05-09T20:09:16.360Z,96172.89
2019-05-09T20:11:57.238Z,96172.97
2019-05-09T20:14:36.875Z,96168.71
2019-05-09T20:17:11.297Z,96172.02
2019-05-09T20:19:47.766Z,96179.55
2019-05-09T20:22:19.965Z,96182.52
2019-05-09T20:24:52.454Z,96192.92
2019-05-09T20:27:25.652Z,96198.86
2019-05-09T20:30:01.586Z,96204.22
2019-05-09T20:32:33.691Z,96210.28
2019-05-09T20:35:05.798Z,96209.94
2019-05-09T20:37:36.443Z,96214.98
2019-05-09T20:40:12.462Z,96215.56
2019-05-09T20:42:51.356Z,96221.94
2019-05-09T20:45:25.068Z,96217.67
2019-05-09T20:47:56.965Z,96213.45
2019-05-09T20:50:31.284Z,96216.12
2019-05-09T20:53:09.649Z,96216.94
2019-05-09T20:55:36.035Z,96213.91
2019-05-09T20:58:13.874Z,96214.56
2019-05-09T21:00:45.356Z,96218.52
2019-05-09T21:03:16.528Z,96218.77
2019-05-09T21:05:48.403Z,96217.59
2019-05-09T21:08:20.283Z,96218.88
2019-05-09T21:10:51.725Z,96224.02
2019-05-09T21:13:22.931Z,96225.97
2019-05-09T21:15:54.347Z,96225.11
2019-05-09T21:18:26.993Z,96229.92
2019-05-09T21:20:58.359Z,96231.49
2019-05-09T21:23:38.217Z,96235.23
2019-05-09T21:26:09.706Z,96236.46
2019-05-09T21:28:41.199Z,96239.18
2019-05-09T21:31:12.261Z,96236.98
2019-05-09T21:33:43.735Z,96232.77
2019-05-09T21:36:14.664Z,96243.77
2019-05-09T21:38:45.743Z,96238.48
2019-05-09T21:41:24.130Z,96238.64
2019-05-09T21:43:55.599Z,96247.80
2019-05-09T21:46:27.190Z,96252.98
2019-05-09T21:48:58.554Z,96255.19
2019-05-09T21:51:29.055Z,96262.31
2019-05-09T21:54:00.755Z,96264.88
2019-05-09T21:56:31.827Z,96258.61
2019-05-09T21:59:03.478Z,96262.21
2019-05-09T22:01:36.875Z,96265.97
2019-05-09T22:04:08.535Z,96270.83
2019-05-09T22:06:40.544Z,96267.84
2019-05-09T22:09:12.090Z,96272.03
2019-05-09T22:11:44.109Z,96269.94
2019-05-09T22:14:14.799Z,96268.27
2019-05-09T22:16:46.384Z,96275.42
2019-05-09T22:19:17.734Z,96271.62
2019-05-09T22:21:49.380Z,96276.03
2019-05-09T22:24:21.058Z,96272.52
2019-05-09T22:26:53.062Z,96273.56
2019-05-09T22:29:23.823Z,96270.43
2019-05-09T22:31:55.269Z,96268.95
2019-05-09T22:34:26.531Z,96272.27
2019-05-09T22:37:02.588Z,96267.00
2019-05-09T22:39:34.244Z,96271.81
2019-05-09T22:42:05.895Z,96269.81
2019-05-09T22:44:37.249Z,96275.13
2019-05-09T22:47:08.189Z,96277.20
2019-05-09T22:49:39.854Z,96279.49
2019-05-09T22:52:10.874Z,96277.98
2019-05-09T22:54:42.434Z,96281.09
2019-05-09T22:57:19.826Z,96282.48
2019-05-09T22:59:51.436Z,96289.95
2019-05-09T23:02:22.691Z,96295.46
2019-05-09T23:04:54.384Z,96294.95
2019-05-09T23:07:25.983Z,96289.95
2019-05-09T23:09:57.885Z,96293.76
2019-05-09T23:12:28.854Z,96291.43
2019-05-09T23:15:00.448Z,96295.07
2019-05-09T23:17:31.515Z,96293.30
2019-05-09T23:20:04.161Z,96302.70
2019-05-09T23:22:35.775Z,96303.47
2019-05-09T23:25:07.515Z,96310.06
2019-05-09T23:27:40.912Z,96307.66
2019-05-09T23:30:13.592Z,96303.28
2019-05-09T23:32:46.070Z,96302.70
2019-05-09T23:35:17.360Z,96301.65
2019-05-09T23:37:48.627Z,96305.53
2019-05-09T23:40:19.954Z,96295.19
2019-05-09T23:42:51.065Z,96298.88
2019-05-09T23:45:21.727Z,96302.34
2019-05-09T23:47:53.445Z,96300.66
2019-05-09T23:50:24.770Z,96299.64
2019-05-09T23:52:56.416Z,96298.30
2019-05-09T23:55:48.265Z,96300.25
2019-05-09T23:58:37.653Z,96314.05
